Aeroporto :
LOGIN :

Iscrizione | Disclaimer

   EN    FR    IT 

 










Sommario :    VFR   VFR Marginale   IFR   IFR Intensivo   IFR Molto Intensivo
Visibilità : 
Base nubi : 
>= 8 km
>= 3000ft
5 / 8 km
1000 / 3000 ft
1500m / 5 km
500 / 1000 ft
800 / 1500m
200 / 500 ft
< 800m
< 200 ft
Simboli :   Temporali  Nebbia  Neve Forte  Precipitazioni Forti  Vento > 20 kt
SIGMETs :   Varie  Temporali  Ghiacco  Turbolenza  Onda orograficha  Ceneri Vulcaniche






- Altitudine del aeroporto : 778 ft
- Codice IATA : BRQ


LKTB - Brno-Turany

ULTIMO METAR :
  • 161000Z 24012KT 9999 -RA FEW016 SCT039 14/12 Q1016 NOSIG

METARs OBSOLETI :
  • 160930Z 24012KT 9999 -RA FEW016 SCT039 13/12 Q1016 NOSIG
  • 160900Z 23010KT 9999 -RA BKN039 13/12 Q1015 NOSIG
  • 160830Z 24010KT 9999 -RA SCT020 OVC039 13/12 Q1015 NOSIG
  • 160800Z 23009KT 9999 -RA FEW006 BKN020 OVC039 13/12 Q1015 NOSIG
  • 160730Z 19006KT 9999 -RA BKN015 OVC042 12/11 Q1015 NOSIG
  • 160719Z 19006KT 9999 -RA BKN020 OVC049 12/11 Q1015 RMK REG QNH 1008

TAF TAF LKTB
Valido dal 16 a 06 ore il 17 a 12 ore UTC


160500Z 1606/1712 21008KT 5000 BR SCT003 BKN025
TEMPO 1606/1608 3000 BR BKN003
PROB30
TEMPO 1606/1608 0900 FG BKN001
BECMG 1608/1610 26008KT 9999 BKN025
TEMPO 1610/1616 8000 RA BKN020
BECMG 1616/1618 11002KT CAVOK
BECMG 1618/1621 3000 BR BKN010
BECMG 1621/1623 0900 FG BKN005



MetMap, La meteo Aeronautica in un colpo d'occhio ! - Copyright ORBIFLY Dicembre 2007 - Disclaimer

ORBIFLY MET'MAP TEAM :

Programmazione e sviluppo : Alexandra Zaïnal
Concezione e sviluppo : Baudouin d'Aumeries
Co-Programmazione e sviluppo : Marc-Olivier Méhu
Supporto tecnico e logistico : Manuel Goepfert
Aiuto per la traduzione : Arnaldo La Scala

Contatto : metmap@orbifly.com




FONTI E CREDITI :

   NOAA